createdAt,value
2022-10-24T00:02:39.741Z,101130.28
2022-10-24T00:05:10.983Z,101138.44
2022-10-24T00:07:42.231Z,101138.16
2022-10-24T00:10:14.675Z,101143.44
2022-10-24T00:12:45.919Z,101140.72
2022-10-24T00:15:18.194Z,101148.03
2022-10-24T00:17:49.134Z,101151.91
2022-10-24T00:20:20.048Z,101149.91
2022-10-24T00:22:50.924Z,101157.66
2022-10-24T00:25:21.938Z,101164.09
2022-10-24T00:27:52.860Z,101165.22
2022-10-24T00:30:23.743Z,101165.19
2022-10-24T00:35:59.813Z,101181.22
2022-10-24T00:38:30.707Z,101175.03
2022-10-24T00:41:01.688Z,101183.38
2022-10-24T00:43:32.768Z,101188.38
2022-10-24T00:46:04.994Z,101183.00
2022-10-24T00:48:42.768Z,101186.44
2022-10-24T00:51:24.833Z,101193.09
2022-10-24T00:54:07.141Z,101195.38
2022-10-24T00:56:47.747Z,101193.44
2022-10-24T00:59:20.929Z,101202.72
2022-10-24T01:01:52.130Z,101211.50
2022-10-24T01:04:22.962Z,101216.16
2022-10-24T01:07:20.719Z,101214.63
2022-10-24T01:10:14.512Z,101232.34
2022-10-24T01:13:18.472Z,101226.22
2022-10-24T01:16:12.201Z,101230.19
2022-10-24T01:18:58.455Z,101237.16
2022-10-24T01:21:39.580Z,101238.59
2022-10-24T01:24:33.708Z,101236.72
2022-10-24T01:27:33.186Z,101251.28
2022-10-24T01:30:17.054Z,101249.38
2022-10-24T01:32:56.740Z,101254.94
2022-10-24T01:35:38.491Z,101243.78
2022-10-24T01:38:22.181Z,101247.16
2022-10-24T01:41:00.115Z,101252.97
2022-10-24T01:43:38.569Z,101249.81
2022-10-24T01:46:16.581Z,101260.69
2022-10-24T01:49:02.748Z,101267.00
2022-10-24T01:51:35.939Z,101266.78
2022-10-24T01:54:07.399Z,101261.56
2022-10-24T01:56:38.156Z,101270.09
2022-10-24T01:59:12.049Z,101267.84
2022-10-24T02:01:43.093Z,101275.47
2022-10-24T02:04:14.547Z,101271.91
2022-10-24T02:06:48.111Z,101282.53
2022-10-24T02:09:22.255Z,101280.91
2022-10-24T02:11:55.456Z,101285.81
2022-10-24T02:14:37.854Z,101283.56
2022-10-24T02:17:09.303Z,101286.31
2022-10-24T02:19:41.222Z,101290.06
2022-10-24T02:22:20.864Z,101287.81
2022-10-24T02:25:17.258Z,101290.41
2022-10-24T02:28:00.312Z,101290.41
2022-10-24T02:30:33.176Z,101291.22
2022-10-24T02:33:04.567Z,101283.44
2022-10-24T02:35:39.104Z,101292.94
2022-10-24T02:38:16.255Z,101292.72
2022-10-24T02:40:49.077Z,101292.72
2022-10-24T02:43:22.121Z,101296.19
2022-10-24T02:45:56.743Z,101304.13
2022-10-24T02:48:33.239Z,101300.56
2022-10-24T02:51:05.108Z,101305.16
2022-10-24T02:53:39.457Z,101305.59
2022-10-24T02:56:10.775Z,101302.50
2022-10-24T02:58:41.192Z,101305.66
2022-10-24T03:01:12.236Z,101304.75
2022-10-24T03:03:43.234Z,101308.22
2022-10-24T03:06:14.497Z,101309.03
2022-10-24T03:08:45.195Z,101312.72
2022-10-24T03:11:16.135Z,101314.34
2022-10-24T03:13:47.055Z,101308.03
2022-10-24T03:16:18.278Z,101314.69
2022-10-24T03:18:49.371Z,101315.69
2022-10-24T03:21:20.329Z,101314.56
2022-10-24T03:23:51.219Z,101321.91
2022-10-24T03:26:21.976Z,101319.97
2022-10-24T03:28:52.852Z,101309.81
2022-10-24T03:31:23.610Z,101315.78
2022-10-24T03:33:54.438Z,101300.31
2022-10-24T03:36:25.317Z,101300.00
2022-10-24T03:38:56.327Z,101296.00
2022-10-24T03:41:27.267Z,101299.72
2022-10-24T03:43:58.130Z,101298.16
2022-10-24T03:46:28.958Z,101292.00
2022-10-24T03:48:59.812Z,101285.16
2022-10-24T03:51:30.590Z,101284.66
2022-10-24T03:54:01.687Z,101289.88
2022-10-24T03:56:34.763Z,101284.66
2022-10-24T03:59:05.592Z,101279.03
2022-10-24T04:01:36.615Z,101270.22
2022-10-24T04:04:07.628Z,101269.91
2022-10-24T04:06:38.752Z,101273.66
2022-10-24T04:09:10.084Z,101260.66
2022-10-24T04:11:41.062Z,101258.38
2022-10-24T04:14:12.294Z,101257.75
2022-10-24T04:16:43.543Z,101244.25
2022-10-24T04:19:14.399Z,101239.28
2022-10-24T04:21:45.333Z,101232.31
2022-10-24T04:24:16.750Z,101235.09
2022-10-24T04:26:47.789Z,101227.28
2022-10-24T04:29:19.125Z,101222.44
2022-10-24T04:31:50.056Z,101218.06
2022-10-24T04:34:21.109Z,101226.19
2022-10-24T04:36:51.636Z,101207.16
2022-10-24T04:39:22.627Z,101203.13
2022-10-24T04:41:53.062Z,101205.53
2022-10-24T04:44:23.826Z,101199.25
2022-10-24T04:46:54.963Z,101186.53
2022-10-24T04:49:25.774Z,101182.13
2022-10-24T04:51:56.732Z,101176.78
2022-10-24T04:54:27.406Z,101168.81
2022-10-24T04:56:58.267Z,101160.53
2022-10-24T04:59:29.080Z,101159.72
2022-10-24T05:01:59.947Z,101153.41
2022-10-24T05:04:30.766Z,101150.97
2022-10-24T05:07:01.386Z,101138.88
2022-10-24T05:09:32.242Z,101129.66
2022-10-24T05:12:03.098Z,101120.03
2022-10-24T05:14:34.037Z,101119.25
2022-10-24T05:17:04.900Z,101116.97
2022-10-24T05:19:35.842Z,101116.28
2022-10-24T05:22:08.641Z,101106.19
2022-10-24T05:24:41.808Z,101092.84
2022-10-24T05:27:12.576Z,101083.25
2022-10-24T05:29:43.648Z,101080.28
2022-10-24T05:32:14.440Z,101079.34
2022-10-24T05:34:45.989Z,101070.69
2022-10-24T05:37:16.973Z,101062.88
2022-10-24T05:39:47.993Z,101061.09
2022-10-24T05:42:19.561Z,101045.28
2022-10-24T05:44:50.649Z,101039.09
2022-10-24T05:47:23.658Z,101040.09
2022-10-24T05:49:56.814Z,101035.19
2022-10-24T05:52:27.700Z,101023.13
2022-10-24T05:55:08.478Z,101029.50
2022-10-24T05:57:41.150Z,101018.25
2022-10-24T06:00:15.406Z,101011.06
2022-10-24T06:05:23.180Z,101007.00
2022-10-24T06:07:54.086Z,100998.84
2022-10-24T06:10:25.061Z,100988.91
2022-10-24T06:12:56.035Z,100974.25
2022-10-24T06:15:26.789Z,100977.19
2022-10-24T06:17:57.725Z,100973.94
2022-10-24T06:20:28.735Z,100972.50
2022-10-24T06:22:59.675Z,100961.09
2022-10-24T06:25:30.560Z,100955.06
2022-10-24T06:28:01.659Z,100959.97
2022-10-24T06:30:32.535Z,100947.72
2022-10-24T06:33:04.071Z,100937.44
2022-10-24T06:35:35.110Z,100935.00
2022-10-24T06:38:06.083Z,100930.63
2022-10-24T06:40:37.543Z,100927.22
2022-10-24T06:43:08.445Z,100914.66
2022-10-24T06:45:41.544Z,100918.38
2022-10-24T06:48:13.256Z,100915.31
2022-10-24T06:50:44.254Z,100916.09
2022-10-24T06:53:15.177Z,100906.81
2022-10-24T06:55:46.122Z,100900.81
2022-10-24T06:58:16.955Z,100905.56
2022-10-24T07:00:47.740Z,100914.03
2022-10-24T07:03:19.451Z,100911.59
2022-10-24T07:05:50.217Z,100899.53
2022-10-24T07:08:21.222Z,100897.16
2022-10-24T07:10:52.072Z,100894.19
2022-10-24T07:13:22.939Z,100889.28
2022-10-24T07:15:56.987Z,100892.88
2022-10-24T07:18:28.169Z,100881.19
2022-10-24T07:21:03.784Z,100881.47
2022-10-24T07:23:34.925Z,100878.06
2022-10-24T07:26:13.671Z,100872.03
2022-10-24T07:28:47.306Z,100871.56
2022-10-24T07:31:20.762Z,100866.69
2022-10-24T07:33:52.342Z,100871.25
2022-10-24T07:36:25.539Z,100865.22
2022-10-24T07:38:59.438Z,100864.72
2022-10-24T07:41:33.091Z,100867.16
2022-10-24T07:44:07.103Z,100864.06
2022-10-24T07:46:38.038Z,100862.78
2022-10-24T07:49:08.974Z,100851.88
2022-10-24T07:51:39.886Z,100854.00
2022-10-24T07:54:11.347Z,100857.41
2022-10-24T07:56:41.783Z,100858.88
2022-10-24T07:59:29.797Z,100851.53
2022-10-24T08:02:03.536Z,100846.97
2022-10-24T08:04:34.413Z,100853.16
2022-10-24T08:07:05.243Z,100840.66
2022-10-24T08:09:40.014Z,100834.28
2022-10-24T08:12:11.083Z,100830.88
2022-10-24T08:14:42.392Z,100835.91
2022-10-24T08:17:13.961Z,100835.56
2022-10-24T08:19:44.915Z,100846.34
2022-10-24T08:22:15.916Z,100846.63
2022-10-24T08:24:47.637Z,100840.31
2022-10-24T08:27:18.551Z,100842.09
2022-10-24T08:29:49.622Z,100835.09
2022-10-24T08:32:20.432Z,100842.59
2022-10-24T08:34:51.502Z,100836.72
2022-10-24T08:37:22.304Z,100841.28
2022-10-24T08:39:53.203Z,100832.13
2022-10-24T08:42:25.290Z,100825.19
2022-10-24T08:44:56.591Z,100828.44
2022-10-24T08:47:43.269Z,100825.50
2022-10-24T08:50:27.387Z,100831.38
2022-10-24T08:53:04.574Z,100832.78
2022-10-24T08:55:56.504Z,100837.38
2022-10-24T08:58:33.052Z,100829.41
2022-10-24T09:01:09.600Z,100831.22
2022-10-24T09:03:56.470Z,100834.00
2022-10-24T09:06:34.824Z,100836.28
2022-10-24T09:09:29.728Z,100839.69
2022-10-24T09:12:09.855Z,100850.75
2022-10-24T09:14:42.287Z,100848.47
2022-10-24T09:17:34.011Z,100847.00
2022-10-24T09:20:31.709Z,100848.78
2022-10-24T09:23:07.347Z,100855.97
2022-10-24T09:25:41.260Z,100855.44
2022-10-24T09:28:15.235Z,100856.59
2022-10-24T09:30:46.275Z,100856.94
2022-10-24T09:33:33.774Z,100854.00
2022-10-24T09:36:07.707Z,100854.50
2022-10-24T09:38:41.029Z,100853.53
2022-10-24T09:41:22.311Z,100850.75
2022-10-24T09:43:58.717Z,100853.03
2022-10-24T09:46:50.783Z,100855.31
2022-10-24T09:49:29.033Z,100844.09
2022-10-24T09:52:19.688Z,100853.81
2022-10-24T09:55:06.067Z,100853.81
2022-10-24T09:57:44.252Z,100854.94
2022-10-24T10:00:38.850Z,100854.47
2022-10-24T10:03:24.113Z,100856.09
2022-10-24T10:06:01.155Z,100855.28
2022-10-24T10:08:35.537Z,100859.03
2022-10-24T10:11:12.692Z,100855.31
2022-10-24T10:13:55.718Z,100862.81
2022-10-24T10:16:32.278Z,100860.03
2022-10-24T10:19:22.690Z,100874.19
2022-10-24T10:22:04.753Z,100878.28
2022-10-24T10:24:48.900Z,100882.50
2022-10-24T10:27:39.500Z,100874.03
2022-10-24T10:30:17.557Z,100882.66
2022-10-24T10:33:22.830Z,100884.31
2022-10-24T10:36:22.975Z,100884.78
2022-10-24T10:39:21.952Z,100889.16
2022-10-24T10:42:01.418Z,100890.78
2022-10-24T10:44:32.520Z,100886.72
2022-10-24T10:47:26.746Z,100890.13
2022-10-24T10:50:01.351Z,100890.97
2022-10-24T10:52:51.484Z,100888.22
2022-10-24T10:55:29.939Z,100890.66
2022-10-24T10:58:10.974Z,100892.94
2022-10-24T11:00:49.723Z,100901.22
2022-10-24T11:03:25.546Z,100903.34
2022-10-24T11:06:09.455Z,100902.56
2022-10-24T11:08:45.631Z,100914.25
2022-10-24T11:11:25.366Z,100918.81
2022-10-24T11:14:19.406Z,100920.94
2022-10-24T11:16:50.994Z,100927.75
2022-10-24T11:19:31.301Z,100932.31
2022-10-24T11:22:06.598Z,100940.47
2022-10-24T11:24:50.343Z,100938.84
2022-10-24T11:27:29.345Z,100948.28
2022-10-24T11:30:04.224Z,100945.84
2022-10-24T11:32:58.066Z,100939.97
2022-10-24T11:35:37.463Z,100951.69
2022-10-24T11:38:19.440Z,100945.19
2022-10-24T11:40:58.633Z,100955.91
2022-10-24T11:43:44.389Z,100963.25
2022-10-24T11:46:23.504Z,100969.25
2022-10-24T11:49:14.876Z,100977.25
2022-10-24T11:52:08.029Z,100975.44
2022-10-24T11:54:56.186Z,100977.06
2022-10-24T11:57:31.265Z,100994.00
2022-10-24T12:00:02.714Z,100991.25
2022-10-24T12:03:11.140Z,100996.28
2022-10-24T12:05:44.888Z,101008.16
2022-10-24T12:08:31.717Z,101000.19
2022-10-24T12:11:41.384Z,101002.47
2022-10-24T12:14:48.227Z,101011.59
2022-10-24T12:17:19.791Z,101002.63
2022-10-24T12:19:53.775Z,101007.50
2022-10-24T12:22:32.377Z,101010.94
2022-10-24T12:25:11.811Z,101013.03
2022-10-24T12:27:44.806Z,101017.25
2022-10-24T12:30:15.686Z,101019.03
2022-10-24T12:32:53.812Z,101025.06
2022-10-24T12:35:31.271Z,101030.59
2022-10-24T12:39:48.258Z,101038.75
2022-10-24T12:42:27.767Z,101038.72
2022-10-24T12:45:04.641Z,101047.81
2022-10-24T12:47:40.538Z,101047.19
2022-10-24T12:50:27.166Z,101046.19
2022-10-24T12:53:00.914Z,101061.94
2022-10-24T12:55:41.348Z,101055.00
2022-10-24T12:58:31.255Z,101065.56
2022-10-24T13:01:12.803Z,101072.84
2022-10-24T13:04:23.380Z,101070.94
2022-10-24T13:07:02.660Z,101067.69
2022-10-24T13:09:59.167Z,101079.38
2022-10-24T13:12:57.906Z,101086.91
2022-10-24T13:15:37.340Z,101084.72
2022-10-24T13:18:36.351Z,101089.34
2022-10-24T13:24:15.869Z,101095.22
2022-10-24T13:26:53.960Z,101095.53
2022-10-24T13:29:27.336Z,101091.47
2022-10-24T13:32:20.794Z,101094.88
2022-10-24T13:34:57.563Z,101098.63
2022-10-24T13:37:53.541Z,101101.56
2022-10-24T13:40:36.541Z,101110.34
2022-10-24T13:43:17.219Z,101112.94
2022-10-24T13:46:13.346Z,101111.97
2022-10-24T13:48:50.812Z,101122.84
2022-10-24T13:51:43.911Z,101118.16
2022-10-24T13:54:24.504Z,101119.25
2022-10-24T13:56:58.357Z,101118.28
2022-10-24T13:59:39.927Z,101125.94
2022-10-24T14:02:24.411Z,101120.88
2022-10-24T14:04:58.323Z,101126.53
2022-10-24T14:07:32.995Z,101127.34
2022-10-24T14:10:11.478Z,101129.03
2022-10-24T14:12:43.832Z,101125.69
2022-10-24T14:15:23.110Z,101124.97
2022-10-24T14:18:00.220Z,101125.63
2022-10-24T14:20:33.284Z,101127.72
2022-10-24T14:23:04.588Z,101122.69
2022-10-24T14:25:39.208Z,101132.44
2022-10-24T14:28:19.383Z,101135.88
2022-10-24T14:31:02.519Z,101137.69
2022-10-24T14:33:46.458Z,101141.59
2022-10-24T14:36:18.016Z,101136.06
2022-10-24T14:38:50.283Z,101141.38
2022-10-24T14:41:29.622Z,101145.00
2022-10-24T14:44:01.856Z,101145.47
2022-10-24T14:46:39.996Z,101147.44
2022-10-24T14:49:36.005Z,101153.97
2022-10-24T14:52:28.439Z,101157.03
2022-10-24T14:55:09.268Z,101160.13
2022-10-24T14:57:41.197Z,101153.44
2022-10-24T15:00:25.033Z,101159.31
2022-10-24T15:02:59.386Z,101154.09
2022-10-24T15:05:34.099Z,101163.69
2022-10-24T15:08:23.338Z,101154.34
2022-10-24T15:11:08.894Z,101156.81
2022-10-24T15:14:05.540Z,101157.66
2022-10-24T15:16:41.440Z,101164.63
2022-10-24T15:19:20.894Z,101168.38
2022-10-24T15:21:52.042Z,101159.59
2022-10-24T15:24:29.161Z,101166.22
2022-10-24T15:27:27.937Z,101174.97
2022-10-24T15:29:59.630Z,101170.72
2022-10-24T15:32:30.616Z,101169.41
2022-10-24T15:35:01.572Z,101168.31
2022-10-24T15:37:33.182Z,101177.06
2022-10-24T15:40:23.463Z,101175.75
2022-10-24T15:42:54.449Z,101173.66
2022-10-24T15:45:26.214Z,101177.69
2022-10-24T15:47:57.055Z,101177.00
2022-10-24T15:50:27.982Z,101175.69
2022-10-24T15:53:01.326Z,101178.44
2022-10-24T15:55:34.668Z,101176.31
2022-10-24T15:58:08.321Z,101177.44
2022-10-24T16:00:39.206Z,101181.97
2022-10-24T16:03:14.769Z,101184.09
2022-10-24T16:05:51.961Z,101178.56
2022-10-24T16:08:23.461Z,101176.94
2022-10-24T16:10:55.883Z,101181.00
2022-10-24T16:13:26.811Z,101181.63
2022-10-24T16:15:58.125Z,101176.94
2022-10-24T16:18:28.861Z,101174.66
2022-10-24T16:21:01.736Z,101176.44
2022-10-24T16:23:32.578Z,101174.16
2022-10-24T16:26:03.843Z,101174.97
2022-10-24T16:28:34.627Z,101181.47
2022-10-24T16:31:07.608Z,101176.44
2022-10-24T16:33:38.622Z,101176.78
2022-10-24T16:36:09.635Z,101183.44
2022-10-24T16:38:40.491Z,101181.16
2022-10-24T16:41:20.950Z,101184.84
2022-10-24T16:43:52.353Z,101179.84
2022-10-24T16:46:24.097Z,101181.78
2022-10-24T16:48:55.287Z,101183.22
2022-10-24T16:51:34.405Z,101181.63
2022-10-24T16:54:06.099Z,101185.69
2022-10-24T16:56:37.008Z,101191.22
2022-10-24T16:59:10.309Z,101189.91
2022-10-24T17:01:44.026Z,101191.53
2022-10-24T17:04:14.883Z,101193.16
2022-10-24T17:06:45.842Z,101191.34
2022-10-24T17:09:16.965Z,101189.91
2022-10-24T17:11:47.934Z,101191.53
2022-10-24T17:14:18.938Z,101187.97
2022-10-24T17:16:49.741Z,101191.06
2022-10-24T17:19:20.582Z,101193.63
2022-10-24T17:21:53.503Z,101192.97
2022-10-24T17:24:28.227Z,101197.22
2022-10-24T17:26:59.461Z,101195.56
2022-10-24T17:29:31.719Z,101190.53
2022-10-24T17:32:03.399Z,101184.19
2022-10-24T17:34:35.347Z,101187.28
2022-10-24T17:37:43.672Z,101187.28
2022-10-24T17:40:24.598Z,101187.78
2022-10-24T17:42:55.687Z,101185.00
2022-10-24T17:45:27.768Z,101184.50
2022-10-24T17:47:58.571Z,101191.34
2022-10-24T17:50:29.547Z,101190.03
2022-10-24T17:53:00.287Z,101189.88
2022-10-24T17:55:45.789Z,101188.91
2022-10-24T17:58:18.700Z,101187.28
2022-10-24T18:00:49.889Z,101189.03
2022-10-24T18:03:22.197Z,101180.75
2022-10-24T18:05:53.068Z,101173.75
2022-10-24T18:08:23.779Z,101168.22
2022-10-24T18:10:54.592Z,101166.13
2022-10-24T18:13:25.573Z,101170.19
2022-10-24T18:15:56.376Z,101157.50
2022-10-24T18:18:27.148Z,101160.88
2022-10-24T18:21:28.391Z,101147.06
2022-10-24T18:24:00.176Z,101141.25
2022-10-24T18:26:31.327Z,101134.88
2022-10-24T18:29:01.770Z,101135.72
2022-10-24T18:31:33.833Z,101132.63
2022-10-24T18:34:08.580Z,101133.44
2022-10-24T18:36:39.942Z,101133.75
2022-10-24T18:39:10.842Z,101126.28
2022-10-24T18:41:47.014Z,101127.72
2022-10-24T18:44:25.865Z,101114.41
2022-10-24T18:46:59.395Z,101117.78
2022-10-24T18:49:32.437Z,101114.72
2022-10-24T18:52:09.074Z,101115.53
2022-10-24T18:54:49.242Z,101109.00
2022-10-24T18:57:32.230Z,101100.72
2022-10-24T19:00:03.446Z,101092.25
2022-10-24T19:03:00.123Z,101097.47
2022-10-24T19:05:53.796Z,101100.53
2022-10-24T19:08:28.507Z,101101.53
2022-10-24T19:11:00.082Z,101093.38
2022-10-24T19:13:31.292Z,101095.00
2022-10-24T19:16:05.737Z,101089.47
2022-10-24T19:18:39.663Z,101095.84
2022-10-24T19:21:10.664Z,101096.66
2022-10-24T19:23:41.669Z,101100.88
2022-10-24T19:26:15.085Z,101099.09
2022-10-24T19:28:46.169Z,101102.16
2022-10-24T19:31:18.359Z,101094.50
2022-10-24T19:33:49.321Z,101092.56
2022-10-24T19:36:20.135Z,101100.38
2022-10-24T19:38:50.731Z,101096.47
2022-10-24T19:41:21.739Z,101095.97
2022-10-24T19:43:53.507Z,101095.16
2022-10-24T19:46:24.606Z,101092.72
2022-10-24T19:48:55.732Z,101086.38
2022-10-24T19:51:27.950Z,101088.47
2022-10-24T19:53:59.687Z,101085.53
2022-10-24T19:56:32.088Z,101084.41
2022-10-24T19:59:03.058Z,101086.06
2022-10-24T20:01:34.144Z,101088.31
2022-10-24T20:04:05.095Z,101095.47
2022-10-24T20:06:36.236Z,101094.84
2022-10-24T20:09:07.394Z,101087.19
2022-10-24T20:11:38.054Z,101082.16
2022-10-24T20:14:08.779Z,101088.47
2022-10-24T20:16:39.620Z,101091.56
2022-10-24T20:19:10.364Z,101080.34
2022-10-24T20:21:41.332Z,101086.69
2022-10-24T20:24:12.969Z,101079.72
2022-10-24T20:26:44.202Z,101079.53
2022-10-24T20:29:17.794Z,101080.34
2022-10-24T20:31:50.081Z,101081.97
2022-10-24T20:34:20.980Z,101085.03
2022-10-24T20:36:51.757Z,101092.72
2022-10-24T20:39:25.873Z,101088.13
2022-10-24T20:41:56.669Z,101082.63
2022-10-24T20:44:27.595Z,101083.91
2022-10-24T20:46:59.337Z,101082.28
2022-10-24T20:49:30.146Z,101089.44
2022-10-24T20:52:01.052Z,101087.81
2022-10-24T20:54:32.061Z,101094.47
2022-10-24T20:57:02.825Z,101095.59
2022-10-24T20:59:33.756Z,101098.38
2022-10-24T21:02:04.615Z,101099.19
2022-10-24T21:04:35.274Z,101095.59
2022-10-24T21:07:06.155Z,101094.47
2022-10-24T21:09:37.778Z,101084.06
2022-10-24T21:12:08.893Z,101088.94
2022-10-24T21:14:39.506Z,101084.53
2022-10-24T21:17:10.371Z,101081.31
2022-10-24T21:19:41.499Z,101078.22
2022-10-24T21:22:12.258Z,101075.78
2022-10-24T21:24:43.074Z,101083.56
2022-10-24T21:27:13.929Z,101089.59
2022-10-24T21:29:44.670Z,101089.91
2022-10-24T21:32:15.796Z,101086.34
2022-10-24T21:34:46.548Z,101094.13
2022-10-24T21:37:17.262Z,101092.50
2022-10-24T21:39:48.043Z,101094.75
2022-10-24T21:42:18.967Z,101101.91
2022-10-24T21:44:49.839Z,101102.22
2022-10-24T21:47:20.685Z,101105.59
2022-10-24T21:49:51.597Z,101097.59
2022-10-24T21:52:22.481Z,101102.66
2022-10-24T21:54:53.367Z,101109.16
2022-10-24T21:57:24.278Z,101093.72
2022-10-24T21:59:54.991Z,101103.03
2022-10-24T22:02:26.011Z,101102.66
2022-10-24T22:04:56.898Z,101106.22
2022-10-24T22:07:28.157Z,101102.97
2022-10-24T22:09:58.577Z,101091.09
2022-10-24T22:12:29.741Z,101099.91
2022-10-24T22:15:00.625Z,101105.72
2022-10-24T22:17:31.235Z,101104.75
2022-10-24T22:20:02.138Z,101107.03
2022-10-24T22:22:32.716Z,101108.66
2022-10-24T22:25:03.452Z,101107.72
2022-10-24T22:27:34.310Z,101103.63
2022-10-24T22:30:05.070Z,101117.97
2022-10-24T22:32:36.057Z,101120.72
2022-10-24T22:35:07.278Z,101113.56
2022-10-24T22:37:38.926Z,101116.31
2022-10-24T22:40:31.226Z,101113.56
2022-10-24T22:43:02.499Z,101120.22
2022-10-24T22:45:33.630Z,101119.91
2022-10-24T22:48:12.953Z,101127.06
2022-10-24T22:50:52.038Z,101119.91
2022-10-24T22:53:30.145Z,101121.34
2022-10-24T22:56:25.585Z,101131.78
2022-10-24T23:00:05.215Z,101138.75
2022-10-24T23:02:40.717Z,101136.28
2022-10-24T23:05:11.672Z,101129.72
2022-10-24T23:07:50.323Z,101129.34
2022-10-24T23:10:24.459Z,101131.75
2022-10-24T23:12:56.075Z,101132.00
2022-10-24T23:15:27.468Z,101125.97
2022-10-24T23:17:57.939Z,101137.00
2022-10-24T23:21:09.855Z,101134.94
2022-10-24T23:23:40.955Z,101138.03
2022-10-24T23:26:15.653Z,101136.19
2022-10-24T23:28:58.436Z,101139.16
2022-10-24T23:31:29.618Z,101143.03
2022-10-24T23:34:00.565Z,101138.47
2022-10-24T23:36:31.708Z,101137.50
2022-10-24T23:39:02.884Z,101144.66
2022-10-24T23:41:34.209Z,101140.28
2022-10-24T23:44:04.851Z,101140.56
2022-10-24T23:46:48.094Z,101145.47
2022-10-24T23:49:43.556Z,101146.09
2022-10-24T23:52:29.206Z,101157.66
2022-10-24T23:55:00.295Z,101153.56
2022-10-24T23:57:30.953Z,101163.19
